Myton, Utah
Current Conditions -  °F | °C
As of 4:53 AM on Friday 28 Nov 2014 (Local Time) from KVEL Reporting Station
Clear Clear  
Wind Chill: 28°   Ceiling: Unl
Heat Index: 28°   Visibility: 10mi
Dew Point: 20°   Wind: 3mph
Humidity: 72%   Direction: 290°WNW
Pressure: 30.16"   Gusts: NA
Location:  40.19°N, 110.06°W
Report Text: KVEL 281153Z AUTO 29003KT 10SM CLR M02/M07 A3016 RMK AO2 SLP217 T10221067 10011 21028 58009
Loading
Personal Weather Stations






























Interactive Weather Map New forecast layout! Learn more

10-Day Weather Forecast

Advertisements
Track Severe Weather on mobile